createdAt,value
2023-04-19T00:02:23.883Z,100574.22
2023-04-19T00:04:53.125Z,100569.06
2023-04-19T00:07:21.544Z,100534.13
2023-04-19T00:09:50.674Z,100565.34
2023-04-19T00:12:18.286Z,100565.09
2023-04-19T00:14:46.004Z,100559.00
2023-04-19T00:17:13.753Z,100554.72
2023-04-19T00:19:42.377Z,100555.59
2023-04-19T00:22:10.653Z,100562.19
2023-04-19T00:24:38.763Z,100554.22
2023-04-19T00:27:07.740Z,100561.25
2023-04-19T00:29:35.512Z,100562.63
2023-04-19T00:32:05.797Z,100560.19
2023-04-19T00:34:33.692Z,100562.34
2023-04-19T00:37:01.346Z,100560.81
2023-04-19T00:39:29.021Z,100570.31
2023-04-19T00:41:57.371Z,100560.63
2023-04-19T00:44:26.399Z,100558.34
2023-04-19T00:46:56.819Z,100559.75
2023-04-19T00:49:25.105Z,100563.81
2023-04-19T00:51:53.169Z,100515.97
2023-04-19T00:54:20.993Z,100563.50
2023-04-19T00:56:50.991Z,100559.88
2023-04-19T00:59:19.793Z,100557.63
2023-04-19T01:01:48.918Z,100555.16
2023-04-19T01:04:17.386Z,100557.16
2023-04-19T01:06:47.559Z,100544.16
2023-04-19T01:09:15.238Z,100550.56
2023-04-19T01:11:43.666Z,100547.16
2023-04-19T01:14:11.612Z,100536.97
2023-04-19T01:16:39.979Z,100534.47
2023-04-19T01:19:09.445Z,100536.13
2023-04-19T01:21:38.271Z,100537.00
2023-04-19T01:24:08.155Z,100538.84
2023-04-19T01:26:35.887Z,100537.38
2023-04-19T01:29:04.164Z,100528.84
2023-04-19T01:31:32.030Z,100524.16
2023-04-19T01:33:59.757Z,100524.00
2023-04-19T01:36:27.835Z,100520.81
2023-04-19T01:38:57.865Z,100520.28
2023-04-19T01:41:27.600Z,100520.59
2023-04-19T01:43:55.244Z,100526.22
2023-04-19T01:46:22.964Z,100514.94
2023-04-19T01:48:52.154Z,100519.19
2023-04-19T01:51:22.845Z,100513.34
2023-04-19T01:53:53.465Z,100512.25
2023-04-19T01:56:21.787Z,100520.38
2023-04-19T01:58:50.835Z,100519.38
2023-04-19T02:01:18.657Z,100513.13
2023-04-19T02:03:46.624Z,100507.31
2023-04-19T02:06:15.014Z,100503.66
2023-04-19T02:08:44.044Z,100499.25
2023-04-19T02:11:14.316Z,100501.34
2023-04-19T02:13:42.478Z,100496.31
2023-04-19T02:16:12.189Z,100493.97
2023-04-19T02:18:40.569Z,100489.84
2023-04-19T02:21:09.272Z,100482.38
2023-04-19T02:23:37.002Z,100492.31
2023-04-19T02:26:04.770Z,100491.50
2023-04-19T02:28:32.791Z,100485.50
2023-04-19T02:31:00.530Z,100474.00
2023-04-19T02:33:30.124Z,100478.84
2023-04-19T02:35:57.743Z,100476.81
2023-04-19T02:38:25.488Z,100479.56
2023-04-19T02:40:54.836Z,100480.50
2023-04-19T02:43:22.541Z,100473.50
2023-04-19T02:45:50.634Z,100477.41
2023-04-19T02:48:18.509Z,100477.84
2023-04-19T02:50:47.521Z,100468.06
2023-04-19T02:53:15.468Z,100479.50
2023-04-19T02:55:43.587Z,100480.06
2023-04-19T02:58:16.625Z,100476.81
2023-04-19T03:01:00.614Z,100468.16
2023-04-19T03:03:28.665Z,100473.69
2023-04-19T03:05:58.576Z,100466.22
2023-04-19T03:08:26.606Z,100465.00
2023-04-19T03:10:54.232Z,100460.03
2023-04-19T03:13:22.034Z,100458.16
2023-04-19T03:15:50.159Z,100455.47
2023-04-19T03:18:21.647Z,100449.59
2023-04-19T03:20:49.307Z,100455.31
2023-04-19T03:23:18.420Z,100445.56
2023-04-19T03:25:47.145Z,100450.78
2023-04-19T03:28:31.803Z,100445.06
2023-04-19T03:31:17.991Z,100444.19
2023-04-19T03:33:49.385Z,100429.94
2023-04-19T03:36:18.127Z,100440.25
2023-04-19T03:38:48.820Z,100427.50
2023-04-19T03:41:22.098Z,100429.38
2023-04-19T03:43:54.984Z,100419.44
2023-04-19T03:46:25.719Z,100418.34
2023-04-19T03:48:53.978Z,100413.31
2023-04-19T03:51:23.146Z,100408.25
2023-04-19T03:53:52.202Z,100403.94
2023-04-19T03:56:20.487Z,100409.13
2023-04-19T03:58:51.493Z,100420.00
2023-04-19T04:01:19.896Z,100419.78
2023-04-19T04:03:48.225Z,100416.16
2023-04-19T04:06:16.167Z,100426.72
2023-04-19T04:08:43.984Z,100422.00
2023-04-19T04:11:13.088Z,100396.97
2023-04-19T04:13:40.885Z,100425.13
2023-04-19T04:16:21.728Z,100429.00
2023-04-19T04:18:51.692Z,100423.00
2023-04-19T04:21:19.526Z,100425.69
2023-04-19T04:23:49.919Z,100417.88
2023-04-19T04:26:39.637Z,100414.50
2023-04-19T04:29:29.022Z,100416.63
2023-04-19T04:31:59.233Z,100417.50
2023-04-19T04:34:33.029Z,100418.22
2023-04-19T04:37:08.733Z,100417.59
2023-04-19T04:39:39.325Z,100408.56
2023-04-19T04:42:09.918Z,100414.59
2023-04-19T04:44:38.854Z,100351.66
2023-04-19T04:47:08.123Z,100417.69
2023-04-19T04:49:42.128Z,100415.88
2023-04-19T04:52:10.203Z,100400.41
2023-04-19T04:54:48.043Z,100420.00
2023-04-19T04:57:25.065Z,100415.81
2023-04-19T04:59:52.832Z,100417.63
2023-04-19T05:02:22.549Z,100412.34
2023-04-19T05:04:52.327Z,100410.03
2023-04-19T05:07:19.960Z,100413.00
2023-04-19T05:09:47.677Z,100409.47
2023-04-19T05:12:20.283Z,100417.28
2023-04-19T05:14:49.219Z,100416.34
2023-04-19T05:17:17.176Z,100412.88
2023-04-19T05:19:46.272Z,100416.78
2023-04-19T05:22:13.973Z,100416.06
2023-04-19T05:24:42.853Z,100421.75
2023-04-19T05:27:11.766Z,100417.72
2023-04-19T05:29:39.498Z,100418.22
2023-04-19T05:32:08.914Z,100416.44
2023-04-19T05:34:48.454Z,100417.22
2023-04-19T05:37:17.271Z,100416.44
2023-04-19T05:39:45.180Z,100413.72
2023-04-19T05:42:12.879Z,100420.53
2023-04-19T05:44:40.622Z,100418.97
2023-04-19T05:47:09.816Z,100424.66
2023-04-19T05:50:05.905Z,100419.69
2023-04-19T05:52:40.068Z,100406.13
2023-04-19T05:55:08.422Z,100418.56
2023-04-19T05:57:41.540Z,100420.34
2023-04-19T06:00:12.598Z,100425.91
2023-04-19T06:03:01.631Z,100424.81
2023-04-19T06:05:29.873Z,100428.03
2023-04-19T06:08:02.476Z,100418.81
2023-04-19T06:10:40.497Z,100430.88
2023-04-19T06:13:18.625Z,100429.38
2023-04-19T06:15:47.119Z,100422.34
2023-04-19T06:18:19.583Z,100422.06
2023-04-19T06:20:48.214Z,100426.13
2023-04-19T06:23:17.153Z,100428.03
2023-04-19T06:25:45.087Z,100425.69
2023-04-19T06:28:12.841Z,100426.59
2023-04-19T06:30:40.537Z,100432.72
2023-04-19T06:33:08.181Z,100417.84
2023-04-19T06:35:37.574Z,100421.19
2023-04-19T06:38:05.189Z,100415.78
2023-04-19T06:40:32.862Z,100433.47
2023-04-19T06:43:00.560Z,100436.69
2023-04-19T06:45:29.259Z,100445.09
2023-04-19T06:47:56.975Z,100438.53
2023-04-19T06:50:24.800Z,100433.69
2023-04-19T06:52:54.356Z,100431.63
2023-04-19T06:55:22.249Z,100440.28
2023-04-19T06:57:49.956Z,100441.22
2023-04-19T07:00:18.550Z,100432.03
2023-04-19T07:02:46.304Z,100440.16
2023-04-19T07:05:14.284Z,100438.25
2023-04-19T07:07:42.149Z,100434.78
2023-04-19T07:10:12.811Z,100439.00
2023-04-19T07:12:40.470Z,100436.63
2023-04-19T07:15:09.268Z,100435.41
2023-04-19T07:17:37.651Z,100440.00
2023-04-19T07:20:06.732Z,100441.47
2023-04-19T07:22:34.398Z,100436.47
2023-04-19T07:25:02.080Z,100424.97
2023-04-19T07:27:31.083Z,100433.28
2023-04-19T07:29:58.813Z,100430.78
2023-04-19T07:32:26.781Z,100424.13
2023-04-19T07:34:54.437Z,100432.09
2023-04-19T07:37:22.397Z,100426.13
2023-04-19T07:39:50.123Z,100425.59
2023-04-19T07:42:17.798Z,100423.00
2023-04-19T07:44:46.853Z,100425.28
2023-04-19T07:47:14.509Z,100429.59
2023-04-19T07:49:44.273Z,100420.72
2023-04-19T07:52:11.907Z,100417.16
2023-04-19T07:54:40.082Z,100413.63
2023-04-19T07:57:07.754Z,100416.53
2023-04-19T07:59:35.415Z,100422.59
2023-04-19T08:02:04.558Z,100414.41
2023-04-19T08:04:32.695Z,100419.09
2023-04-19T08:07:00.834Z,100414.00
2023-04-19T08:09:28.564Z,100416.75
2023-04-19T08:11:57.040Z,100414.44
2023-04-19T08:14:37.799Z,100407.06
2023-04-19T08:17:25.581Z,100413.75
2023-04-19T08:19:54.739Z,100401.53
2023-04-19T08:22:22.616Z,100405.91
2023-04-19T08:24:51.417Z,100398.91
2023-04-19T08:27:19.492Z,100398.09
2023-04-19T08:29:47.537Z,100397.66
2023-04-19T08:32:16.782Z,100407.53
2023-04-19T08:34:44.560Z,100404.34
2023-04-19T08:37:12.268Z,100402.41
2023-04-19T08:39:40.229Z,100392.91
2023-04-19T08:42:18.411Z,100394.53
2023-04-19T08:45:23.421Z,100392.53
2023-04-19T08:47:58.642Z,100372.78
2023-04-19T08:53:12.269Z,100382.69
2023-04-19T08:55:51.018Z,100383.09
2023-04-19T08:58:51.936Z,100381.50
2023-04-19T09:01:34.048Z,100377.94
2023-04-19T09:04:16.918Z,100378.34
2023-04-19T09:06:55.076Z,100375.19
2023-04-19T09:11:55.226Z,100370.88
2023-04-19T09:14:24.114Z,100374.84
2023-04-19T09:16:52.841Z,100300.06
2023-04-19T09:19:25.282Z,100364.13
2023-04-19T09:21:54.729Z,100363.75
2023-04-19T09:27:12.043Z,100353.81
2023-04-19T09:29:40.017Z,100354.97
2023-04-19T09:32:07.938Z,100352.13
2023-04-19T09:34:37.020Z,100338.72
2023-04-19T09:37:21.530Z,100347.69
2023-04-19T09:40:00.592Z,100347.41
2023-04-19T09:48:02.102Z,100348.91
2023-04-19T09:50:31.799Z,100348.19
2023-04-19T09:53:00.972Z,100342.25
2023-04-19T09:55:30.345Z,100341.44
2023-04-19T09:58:03.514Z,100345.41
2023-04-19T10:00:36.166Z,100346.94
2023-04-19T10:03:13.644Z,100338.09
2023-04-19T10:05:44.259Z,100344.09
2023-04-19T10:08:13.558Z,100342.41
2023-04-19T10:10:42.891Z,100342.94
2023-04-19T10:15:51.266Z,100344.66
2023-04-19T10:18:23.915Z,100337.22
2023-04-19T10:20:59.824Z,100340.78
2023-04-19T10:23:28.861Z,100331.72
2023-04-19T10:25:57.871Z,100334.91
2023-04-19T10:28:29.629Z,100326.59
2023-04-19T10:31:02.325Z,100330.06
2023-04-19T10:33:36.689Z,100323.75
2023-04-19T10:36:10.590Z,100292.34
2023-04-19T10:38:40.450Z,100319.53
2023-04-19T10:41:17.034Z,100310.13
2023-04-19T10:43:48.065Z,100303.72
2023-04-19T10:46:18.410Z,100302.72
2023-04-19T10:48:54.474Z,100296.59
2023-04-19T10:51:27.802Z,100292.13
2023-04-19T10:53:57.931Z,100281.72
2023-04-19T10:57:02.161Z,100279.16
2023-04-19T10:59:31.600Z,100279.19
2023-04-19T11:02:01.086Z,100259.47
2023-04-19T11:05:04.207Z,100262.97
2023-04-19T11:07:41.507Z,100266.44
2023-04-19T11:10:11.453Z,100266.88
2023-04-19T11:12:43.372Z,100258.25
2023-04-19T11:15:11.876Z,100249.34
2023-04-19T11:17:39.778Z,100215.78
2023-04-19T11:20:10.757Z,100245.22
2023-04-19T11:22:41.237Z,100234.84
2023-04-19T11:25:13.078Z,100235.50
2023-04-19T11:27:42.754Z,100230.75
2023-04-19T11:30:12.605Z,100212.78
2023-04-19T11:32:46.581Z,100218.81
2023-04-19T11:35:14.671Z,100214.41
2023-04-19T11:37:44.026Z,100212.78
2023-04-19T11:40:16.075Z,100204.56
2023-04-19T11:42:44.080Z,100202.41
2023-04-19T11:45:22.338Z,100199.41
2023-04-19T11:47:57.422Z,100195.88
2023-04-19T11:50:35.482Z,100188.19
2023-04-19T11:53:16.057Z,100186.38
2023-04-19T11:55:45.332Z,100177.53
2023-04-19T11:58:29.072Z,100176.47
2023-04-19T12:00:58.231Z,100168.03
2023-04-19T12:03:27.280Z,100162.63
2023-04-19T12:06:00.132Z,100173.41
2023-04-19T12:08:34.297Z,100165.13
2023-04-19T12:11:03.531Z,100164.00
2023-04-19T12:13:32.155Z,100161.56
2023-04-19T12:16:00.702Z,100154.50
2023-04-19T12:18:28.442Z,100147.44
2023-04-19T12:20:56.226Z,100144.09
2023-04-19T12:23:23.929Z,100148.88
2023-04-19T12:25:53.776Z,100152.06
2023-04-19T12:28:21.514Z,100142.00
2023-04-19T12:30:49.150Z,100147.03
2023-04-19T12:33:16.890Z,100137.72
2023-04-19T12:35:44.965Z,100133.44
2023-04-19T12:38:12.678Z,100134.59
2023-04-19T12:40:40.342Z,100134.03
2023-04-19T12:43:09.406Z,100126.34
2023-04-19T12:45:37.140Z,100124.69
2023-04-19T12:48:05.040Z,100116.28
2023-04-19T12:50:32.752Z,100123.59
2023-04-19T12:53:00.423Z,100120.94
2023-04-19T12:55:28.236Z,100115.53
2023-04-19T12:57:55.863Z,100115.03
2023-04-19T13:00:25.088Z,100116.03
2023-04-19T13:02:52.828Z,100119.41
2023-04-19T13:05:20.815Z,100098.44
2023-04-19T13:07:48.576Z,100107.59
2023-04-19T13:10:16.693Z,100113.31
2023-04-19T13:12:44.479Z,100103.09
2023-04-19T13:15:12.607Z,100101.31
2023-04-19T13:17:41.596Z,100092.78
2023-04-19T13:20:10.550Z,100084.16
2023-04-19T13:22:38.568Z,100092.31
2023-04-19T13:25:06.967Z,100084.47
2023-04-19T13:27:34.626Z,100078.03
2023-04-19T13:30:02.306Z,100077.72
2023-04-19T13:32:30.332Z,100073.25
2023-04-19T13:34:59.390Z,100077.34
2023-04-19T13:37:27.040Z,100071.84
2023-04-19T13:40:03.959Z,100062.16
2023-04-19T13:42:39.264Z,100054.31
2023-04-19T13:45:08.023Z,100052.09
2023-04-19T13:47:35.733Z,100062.00
2023-04-19T13:50:05.684Z,100051.31
2023-04-19T13:52:33.428Z,100050.03
2023-04-19T13:55:01.077Z,100044.28
2023-04-19T13:57:29.001Z,100044.38
2023-04-19T13:59:56.664Z,100045.16
2023-04-19T14:02:24.565Z,100046.81
2023-04-19T14:04:52.379Z,100039.38
2023-04-19T14:07:21.388Z,100037.56
2023-04-19T14:09:49.039Z,100033.91
2023-04-19T14:12:16.721Z,100030.31
2023-04-19T14:14:44.410Z,100032.94
2023-04-19T14:17:12.084Z,100029.22
2023-04-19T14:19:39.748Z,100036.09
2023-04-19T14:22:07.434Z,100040.63
2023-04-19T14:24:36.529Z,100026.22
2023-04-19T14:27:10.996Z,100028.81
2023-04-19T14:29:39.136Z,100021.84
2023-04-19T14:32:23.458Z,100023.47
2023-04-19T14:34:52.654Z,100025.75
2023-04-19T14:37:20.402Z,100021.97
2023-04-19T14:39:49.435Z,100017.22
2023-04-19T14:42:17.175Z,100021.03
2023-04-19T14:44:45.629Z,100025.06
2023-04-19T14:47:13.703Z,100020.19
2023-04-19T14:49:42.213Z,100025.06
2023-04-19T14:52:09.950Z,100012.34
2023-04-19T14:54:37.655Z,100014.38
2023-04-19T14:57:06.725Z,100007.31
2023-04-19T14:59:34.437Z,100006.66
2023-04-19T15:02:02.318Z,99978.97
2023-04-19T15:04:30.147Z,100009.53
2023-04-19T15:06:57.857Z,100002.84
2023-04-19T15:09:25.511Z,100003.34
2023-04-19T15:11:53.151Z,100008.78
2023-04-19T15:14:28.669Z,100004.97
2023-04-19T15:16:56.315Z,100014.03
2023-04-19T15:19:24.077Z,100006.47
2023-04-19T15:21:51.705Z,100011.31
2023-04-19T15:24:19.447Z,100006.84
2023-04-19T15:26:47.554Z,99995.06
2023-04-19T15:29:15.805Z,100005.38
2023-04-19T15:31:45.201Z,100003.88
2023-04-19T15:34:12.887Z,100009.81
2023-04-19T15:36:41.270Z,100010.53
2023-04-19T15:39:09.172Z,100010.44
2023-04-19T15:41:36.882Z,100006.16
2023-04-19T15:44:04.534Z,100006.28
2023-04-19T15:46:32.318Z,100004.41
2023-04-19T15:49:01.788Z,100000.22
2023-04-19T15:51:29.384Z,100000.03
2023-04-19T15:53:57.446Z,99959.78
2023-04-19T15:56:25.177Z,99996.59
2023-04-19T15:58:53.176Z,100000.72
2023-04-19T16:01:22.831Z,99999.94
2023-04-19T16:03:50.733Z,100011.09
2023-04-19T16:06:19.787Z,99996.69
2023-04-19T16:08:47.473Z,100006.97
2023-04-19T16:11:15.176Z,100014.44
2023-04-19T16:13:42.822Z,100013.19
2023-04-19T16:16:10.547Z,100013.38
2023-04-19T16:18:38.336Z,100017.09
2023-04-19T16:21:06.458Z,100012.56
2023-04-19T16:23:35.475Z,100022.03
2023-04-19T16:26:03.114Z,100021.41
2023-04-19T16:28:30.859Z,100022.47
2023-04-19T16:30:58.597Z,100019.63
2023-04-19T16:33:26.267Z,100019.13
2023-04-19T16:35:54.071Z,100025.34
2023-04-19T16:38:21.719Z,100029.09
2023-04-19T16:40:51.426Z,100037.94
2023-04-19T16:43:20.741Z,100023.22
2023-04-19T16:45:48.636Z,100026.38
2023-04-19T16:48:16.431Z,100025.44
2023-04-19T16:50:44.338Z,100025.72
2023-04-19T16:53:12.547Z,100027.72
2023-04-19T16:55:40.234Z,100020.59
2023-04-19T16:58:09.254Z,100016.91
2023-04-19T17:00:36.894Z,100021.16
2023-04-19T17:03:04.967Z,100029.72
2023-04-19T17:05:32.715Z,100018.53
2023-04-19T17:08:00.376Z,100031.06
2023-04-19T17:10:28.587Z,100020.84
2023-04-19T17:12:56.406Z,100030.00
2023-04-19T17:15:26.001Z,100021.38
2023-04-19T17:17:53.789Z,100021.44
2023-04-19T17:20:21.597Z,100021.59
2023-04-19T17:22:49.259Z,100029.84
2023-04-19T17:25:16.959Z,100029.06
2023-04-19T17:27:46.581Z,100029.06
2023-04-19T17:30:14.793Z,100039.31
2023-04-19T17:32:43.839Z,100032.19
2023-04-19T17:35:11.511Z,100044.41
2023-04-19T17:37:39.174Z,100037.69
2023-04-19T17:40:08.252Z,100034.50
2023-04-19T17:42:35.940Z,100039.13
2023-04-19T17:45:04.186Z,100043.47
2023-04-19T17:47:32.325Z,100041.88
2023-04-19T17:50:07.943Z,100042.28
2023-04-19T17:52:35.663Z,100038.31
2023-04-19T17:55:04.654Z,100047.69
2023-04-19T17:57:33.975Z,100040.53
2023-04-19T18:00:06.556Z,100043.22
2023-04-19T18:02:37.037Z,100045.84
2023-04-19T18:05:07.400Z,100046.50
2023-04-19T18:07:36.684Z,100038.16
2023-04-19T18:10:04.808Z,100040.38
2023-04-19T18:12:32.791Z,100040.16
2023-04-19T18:15:00.524Z,100050.78
2023-04-19T18:17:28.183Z,100050.25
2023-04-19T18:19:55.861Z,100043.81
2023-04-19T18:22:24.831Z,99911.50
2023-04-19T18:24:53.456Z,100058.03
2023-04-19T18:27:21.204Z,100052.06
2023-04-19T18:29:51.813Z,100058.94
2023-04-19T18:32:21.621Z,100055.53
2023-04-19T18:34:49.367Z,100052.09
2023-04-19T18:37:17.805Z,100059.28
2023-04-19T18:39:47.114Z,100064.03
2023-04-19T18:42:14.782Z,100066.91
2023-04-19T18:47:13.068Z,100064.00
2023-04-19T18:49:40.787Z,100071.03
2023-04-19T18:52:08.413Z,100078.75
2023-04-19T18:54:36.197Z,100075.63
2023-04-19T18:57:22.752Z,100080.59
2023-04-19T18:59:50.954Z,100083.88
2023-04-19T19:02:18.839Z,100087.19
2023-04-19T19:04:55.874Z,100091.13
2023-04-19T19:07:35.582Z,100089.97
2023-04-19T19:10:17.287Z,100086.06
2023-04-19T19:12:50.264Z,100087.47
2023-04-19T19:15:18.199Z,100067.31
2023-04-19T19:17:49.373Z,100099.28
2023-04-19T19:20:18.523Z,100014.22
2023-04-19T19:22:46.440Z,100053.41
2023-04-19T19:25:14.130Z,100096.88
2023-04-19T19:27:49.865Z,100099.41
2023-04-19T19:30:33.607Z,100097.38
2023-04-19T19:33:02.740Z,100100.84
2023-04-19T19:35:30.576Z,100098.88
2023-04-19T19:37:58.306Z,100106.03
2023-04-19T19:40:26.961Z,100094.41
2023-04-19T19:42:58.603Z,100102.63
2023-04-19T19:45:28.218Z,100102.47
2023-04-19T19:47:59.085Z,100100.78
2023-04-19T19:53:00.236Z,100106.16
2023-04-19T19:55:28.375Z,100118.22
2023-04-19T20:02:59.118Z,100109.44
2023-04-19T20:05:27.778Z,100109.50
2023-04-19T20:08:06.111Z,100111.97
2023-04-19T20:10:34.282Z,100113.97
2023-04-19T20:13:02.310Z,100119.16
2023-04-19T20:15:30.941Z,100113.63
2023-04-19T20:18:00.032Z,100121.16
2023-04-19T20:20:27.869Z,100108.97
2023-04-19T20:22:55.994Z,100123.91
2023-04-19T20:25:23.763Z,100122.91
2023-04-19T20:27:51.461Z,100129.88
2023-04-19T20:30:19.075Z,100125.53
2023-04-19T20:32:48.313Z,100125.66
2023-04-19T20:35:17.999Z,100116.56
2023-04-19T20:37:47.380Z,100125.69
2023-04-19T20:40:16.373Z,100123.34
2023-04-19T20:42:44.770Z,100125.50
2023-04-19T20:45:14.104Z,100126.16
2023-04-19T20:47:42.746Z,100126.09
2023-04-19T20:50:11.128Z,100127.31
2023-04-19T20:52:40.449Z,100138.59
2023-04-19T20:55:09.052Z,100131.88
2023-04-19T20:57:36.708Z,100135.84
2023-04-19T21:00:07.948Z,100135.97
2023-04-19T21:02:35.757Z,100137.00
2023-04-19T21:05:03.475Z,100124.94
2023-04-19T21:07:31.173Z,100120.75
2023-04-19T21:10:00.406Z,100116.28
2023-04-19T21:12:28.594Z,100117.56
2023-04-19T21:14:56.428Z,100111.19
2023-04-19T21:17:24.114Z,100112.09
2023-04-19T21:19:51.834Z,100109.59
2023-04-19T21:22:19.557Z,100107.22
2023-04-19T21:24:47.741Z,100110.38
2023-04-19T21:27:16.881Z,100104.69
2023-04-19T21:29:44.946Z,100103.88
2023-04-19T21:32:12.838Z,100107.75
2023-04-19T21:34:40.664Z,100101.50
2023-04-19T21:37:08.623Z,100104.59
2023-04-19T21:39:36.542Z,100092.41
2023-04-19T21:42:04.454Z,100095.91
2023-04-19T21:44:34.414Z,100096.94
2023-04-19T21:47:02.357Z,100100.00
2023-04-19T21:49:31.015Z,100078.53
2023-04-19T21:51:59.005Z,100083.53
2023-04-19T21:54:33.924Z,100094.47
2023-04-19T21:57:03.253Z,100074.09
2023-04-19T21:59:31.542Z,100093.09
2023-04-19T22:02:01.759Z,100088.09
2023-04-19T22:04:31.098Z,100081.06
2023-04-19T22:07:02.378Z,100086.25
2023-04-19T22:09:31.094Z,100084.78
2023-04-19T22:12:00.214Z,100075.47
2023-04-19T22:14:30.796Z,100075.34
2023-04-19T22:17:02.670Z,100062.63
2023-04-19T22:19:32.652Z,100066.59
2023-04-19T22:22:00.789Z,100066.81
2023-04-19T22:24:29.044Z,100064.66
2023-04-19T22:26:57.496Z,100068.75
2023-04-19T22:29:25.705Z,100065.31
2023-04-19T22:31:54.180Z,100066.03
2023-04-19T22:34:22.892Z,100045.31
2023-04-19T22:36:52.486Z,100052.94
2023-04-19T22:39:20.802Z,100035.09
2023-04-19T22:41:49.057Z,100049.19
2023-04-19T22:44:17.452Z,100039.16
2023-04-19T22:46:46.023Z,100026.31
2023-04-19T22:49:14.330Z,100029.16
2023-04-19T22:51:42.438Z,100028.50
2023-04-19T22:54:12.001Z,100021.78
2023-04-19T22:56:40.428Z,100024.53
2023-04-19T22:59:08.973Z,100027.56
2023-04-19T23:01:37.123Z,100021.88
2023-04-19T23:04:05.342Z,100018.78
2023-04-19T23:06:33.862Z,100017.06
2023-04-19T23:09:02.075Z,100022.41
2023-04-19T23:11:31.698Z,100010.72
2023-04-19T23:13:59.780Z,100009.59
2023-04-19T23:16:28.930Z,100004.56
2023-04-19T23:18:56.950Z,100000.00
2023-04-19T23:21:24.686Z,99997.28
2023-04-19T23:23:52.866Z,99992.94
2023-04-19T23:26:21.524Z,99995.66
2023-04-19T23:28:50.512Z,99988.59
2023-04-19T23:31:18.324Z,99987.69
2023-04-19T23:33:46.343Z,99983.69
2023-04-19T23:36:13.993Z,99983.56
2023-04-19T23:38:41.691Z,99979.72
2023-04-19T23:41:10.955Z,99983.19
2023-04-19T23:43:38.727Z,99982.19
2023-04-19T23:46:08.530Z,99976.28
2023-04-19T23:48:36.335Z,99970.38
2023-04-19T23:51:04.071Z,99964.34
2023-04-19T23:53:31.855Z,99959.00
2023-04-19T23:55:59.818Z,99960.88
2023-04-19T23:58:27.518Z,99958.06
